sensor_id;sensor_type;location;lat;lon;timestamp;pressure;altitude;pressure_sealevel;temperature;humidity
31005;BME280;17676;52.254;4.490;2023-12-20T00:01:32;101507.28;;;8.97;100.00
31005;BME280;17676;52.254;4.490;2023-12-20T00:03:57;101489.56;;;9.17;100.00
31005;BME280;17676;52.254;4.490;2023-12-20T00:06:23;101476.13;;;9.09;100.00
31005;BME280;17676;52.254;4.490;2023-12-20T00:08:49;101481.78;;;8.99;100.00
31005;BME280;17676;52.254;4.490;2023-12-20T00:11:15;101496.66;;;8.95;100.00
31005;BME280;17676;52.254;4.490;2023-12-20T00:13:40;101512.00;;;8.95;100.00
31005;BME280;17676;52.254;4.490;2023-12-20T00:16:06;101498.09;;;9.06;100.00
31005;BME280;17676;52.254;4.490;2023-12-20T00:18:32;101521.00;;;9.10;100.00
31005;BME280;17676;52.254;4.490;2023-12-20T00:20:57;101504.34;;;9.06;100.00
31005;BME280;17676;52.254;4.490;2023-12-20T00:23:23;101541.28;;;9.06;100.00
31005;BME280;17676;52.254;4.490;2023-12-20T00:25:49;101572.78;;;8.91;100.00
31005;BME280;17676;52.254;4.490;2023-12-20T00:28:14;101584.97;;;8.87;100.00
31005;BME280;17676;52.254;4.490;2023-12-20T00:30:40;101592.66;;;8.98;100.00
31005;BME280;17676;52.254;4.490;2023-12-20T00:33:06;101586.28;;;8.91;100.00
31005;BME280;17676;52.254;4.490;2023-12-20T00:35:32;101564.34;;;8.94;100.00
31005;BME280;17676;52.254;4.490;2023-12-20T00:37:58;101557.66;;;9.04;100.00
31005;BME280;17676;52.254;4.490;2023-12-20T00:40:24;101558.81;;;9.10;100.00
31005;BME280;17676;52.254;4.490;2023-12-20T00:42:49;101555.56;;;9.14;100.00
31005;BME280;17676;52.254;4.490;2023-12-20T00:45:15;101554.03;;;9.12;100.00
31005;BME280;17676;52.254;4.490;2023-12-20T00:47:41;101547.78;;;8.97;100.00
31005;BME280;17676;52.254;4.490;2023-12-20T00:50:07;101564.13;;;9.18;100.00
31005;BME280;17676;52.254;4.490;2023-12-20T00:52:33;101533.13;;;9.14;100.00
31005;BME280;17676;52.254;4.490;2023-12-20T00:54:58;101540.53;;;9.12;100.00
31005;BME280;17676;52.254;4.490;2023-12-20T00:57:24;101538.56;;;9.28;100.00
31005;BME280;17676;52.254;4.490;2023-12-20T00:59:50;101525.59;;;9.24;100.00
31005;BME280;17676;52.254;4.490;2023-12-20T01:02:16;101501.28;;;9.24;100.00
31005;BME280;17676;52.254;4.490;2023-12-20T01:04:41;101496.00;;;9.30;100.00
31005;BME280;17676;52.254;4.490;2023-12-20T01:07:07;101491.22;;;9.18;100.00
31005;BME280;17676;52.254;4.490;2023-12-20T01:09:35;101481.13;;;9.12;100.00
31005;BME280;17676;52.254;4.490;2023-12-20T01:12:01;101476.06;;;9.17;100.00
31005;BME280;17676;52.254;4.490;2023-12-20T01:14:26;101510.41;;;9.23;100.00
31005;BME280;17676;52.254;4.490;2023-12-20T01:16:52;101487.84;;;9.16;100.00
31005;BME280;17676;52.254;4.490;2023-12-20T01:19:17;101506.59;;;9.32;100.00
31005;BME280;17676;52.254;4.490;2023-12-20T01:21:43;101493.84;;;9.26;100.00
31005;BME280;17676;52.254;4.490;2023-12-20T01:24:09;101505.44;;;9.12;100.00
31005;BME280;17676;52.254;4.490;2023-12-20T01:26:35;101509.94;;;9.19;100.00
31005;BME280;17676;52.254;4.490;2023-12-20T01:29:01;101518.22;;;9.18;100.00
31005;BME280;17676;52.254;4.490;2023-12-20T01:31:27;101531.00;;;9.24;100.00
31005;BME280;17676;52.254;4.490;2023-12-20T01:33:52;101558.91;;;9.16;100.00
31005;BME280;17676;52.254;4.490;2023-12-20T01:36:18;101582.31;;;9.24;100.00
31005;BME280;17676;52.254;4.490;2023-12-20T01:38:44;101607.75;;;9.29;100.00
31005;BME280;17676;52.254;4.490;2023-12-20T01:41:10;101600.16;;;9.33;100.00
31005;BME280;17676;52.254;4.490;2023-12-20T01:43:35;101599.00;;;9.27;100.00
31005;BME280;17676;52.254;4.490;2023-12-20T01:46:01;101564.91;;;9.26;100.00
31005;BME280;17676;52.254;4.490;2023-12-20T01:48:30;101541.34;;;9.35;100.00
31005;BME280;17676;52.254;4.490;2023-12-20T01:50:59;101553.28;;;9.26;100.00
31005;BME280;17676;52.254;4.490;2023-12-20T01:53:25;101536.66;;;9.14;100.00
31005;BME280;17676;52.254;4.490;2023-12-20T01:55:54;101536.47;;;9.16;100.00
31005;BME280;17676;52.254;4.490;2023-12-20T01:58:20;101536.00;;;9.12;100.00
31005;BME280;17676;52.254;4.490;2023-12-20T02:00:47;101554.66;;;9.22;100.00
31005;BME280;17676;52.254;4.490;2023-12-20T02:03:12;101558.06;;;9.16;100.00
31005;BME280;17676;52.254;4.490;2023-12-20T02:05:38;101550.03;;;9.08;100.00
31005;BME280;17676;52.254;4.490;2023-12-20T02:08:04;101567.88;;;9.17;100.00
31005;BME280;17676;52.254;4.490;2023-12-20T02:10:31;101572.59;;;9.15;100.00
31005;BME280;17676;52.254;4.490;2023-12-20T02:12:57;101566.16;;;9.16;100.00
31005;BME280;17676;52.254;4.490;2023-12-20T02:15:23;101564.56;;;9.07;100.00
31005;BME280;17676;52.254;4.490;2023-12-20T02:17:49;101564.56;;;9.07;100.00
31005;BME280;17676;52.254;4.490;2023-12-20T02:20:15;101601.66;;;9.13;100.00
31005;BME280;17676;52.254;4.490;2023-12-20T02:22:40;101598.28;;;9.11;100.00
31005;BME280;17676;52.254;4.490;2023-12-20T02:25:06;101637.00;;;9.03;100.00
31005;BME280;17676;52.254;4.490;2023-12-20T02:27:32;101653.19;;;9.03;100.00
31005;BME280;17676;52.254;4.490;2023-12-20T02:29:57;101678.59;;;9.17;100.00
31005;BME280;17676;52.254;4.490;2023-12-20T02:32:24;101693.94;;;9.16;100.00
31005;BME280;17676;52.254;4.490;2023-12-20T02:34:53;101699.41;;;9.08;100.00
31005;BME280;17676;52.254;4.490;2023-12-20T02:37:19;101700.50;;;9.22;100.00
31005;BME280;17676;52.254;4.490;2023-12-20T02:39:45;101720.59;;;9.19;100.00
31005;BME280;17676;52.254;4.490;2023-12-20T02:42:10;101711.34;;;9.14;100.00
31005;BME280;17676;52.254;4.490;2023-12-20T02:44:36;101713.06;;;9.07;100.00
31005;BME280;17676;52.254;4.490;2023-12-20T02:47:04;101728.75;;;9.11;100.00
31005;BME280;17676;52.254;4.490;2023-12-20T02:49:29;101710.81;;;9.18;100.00
31005;BME280;17676;52.254;4.490;2023-12-20T02:51:55;101682.66;;;9.13;100.00
31005;BME280;17676;52.254;4.490;2023-12-20T02:54:21;101667.78;;;9.17;100.00
31005;BME280;17676;52.254;4.490;2023-12-20T02:56:46;101651.19;;;9.20;100.00
31005;BME280;17676;52.254;4.490;2023-12-20T02:59:15;101639.94;;;9.16;100.00
31005;BME280;17676;52.254;4.490;2023-12-20T03:01:45;101605.84;;;9.15;100.00
31005;BME280;17676;52.254;4.490;2023-12-20T03:04:11;101607.06;;;9.13;100.00
31005;BME280;17676;52.254;4.490;2023-12-20T03:06:36;101637.41;;;9.15;100.00
31005;BME280;17676;52.254;4.490;2023-12-20T03:09:02;101632.22;;;9.05;100.00
31005;BME280;17676;52.254;4.490;2023-12-20T03:11:28;101671.91;;;9.05;100.00
31005;BME280;17676;52.254;4.490;2023-12-20T03:13:54;101658.63;;;8.95;100.00
31005;BME280;17676;52.254;4.490;2023-12-20T03:16:20;101662.78;;;9.06;100.00
31005;BME280;17676;52.254;4.490;2023-12-20T03:18:46;101643.53;;;9.09;100.00
31005;BME280;17676;52.254;4.490;2023-12-20T03:21:12;101625.16;;;9.04;100.00
31005;BME280;17676;52.254;4.490;2023-12-20T03:23:38;101614.97;;;9.14;100.00
31005;BME280;17676;52.254;4.490;2023-12-20T03:26:07;101596.97;;;9.07;100.00
31005;BME280;17676;52.254;4.490;2023-12-20T03:28:32;101579.44;;;9.03;100.00
31005;BME280;17676;52.254;4.490;2023-12-20T03:30:58;101590.84;;;8.90;100.00
31005;BME280;17676;52.254;4.490;2023-12-20T03:33:23;101595.06;;;8.93;100.00
31005;BME280;17676;52.254;4.490;2023-12-20T03:35:49;101578.72;;;9.09;100.00
31005;BME280;17676;52.254;4.490;2023-12-20T03:38:14;101574.03;;;9.03;100.00
31005;BME280;17676;52.254;4.490;2023-12-20T03:40:40;101563.13;;;8.96;100.00
31005;BME280;17676;52.254;4.490;2023-12-20T03:43:06;101540.50;;;8.97;100.00
31005;BME280;17676;52.254;4.490;2023-12-20T03:45:32;101546.09;;;8.96;100.00
31005;BME280;17676;52.254;4.490;2023-12-20T03:47:57;101551.13;;;8.99;100.00
31005;BME280;17676;52.254;4.490;2023-12-20T03:50:23;101518.63;;;8.92;100.00
31005;BME280;17676;52.254;4.490;2023-12-20T03:52:49;101529.53;;;8.99;100.00
31005;BME280;17676;52.254;4.490;2023-12-20T03:55:15;101515.00;;;9.00;100.00
31005;BME280;17676;52.254;4.490;2023-12-20T03:57:40;101530.84;;;9.03;100.00
31005;BME280;17676;52.254;4.490;2023-12-20T04:00:10;101529.25;;;8.94;100.00
31005;BME280;17676;52.254;4.490;2023-12-20T04:02:39;101499.19;;;8.97;100.00
31005;BME280;17676;52.254;4.490;2023-12-20T04:05:06;101503.19;;;9.01;100.00
31005;BME280;17676;52.254;4.490;2023-12-20T04:07:32;101487.44;;;8.90;100.00
31005;BME280;17676;52.254;4.490;2023-12-20T04:09:58;101494.50;;;8.91;100.00
31005;BME280;17676;52.254;4.490;2023-12-20T04:12:23;101492.59;;;8.99;100.00
31005;BME280;17676;52.254;4.490;2023-12-20T04:14:49;101478.41;;;8.97;100.00
31005;BME280;17676;52.254;4.490;2023-12-20T04:17:15;101469.22;;;8.92;100.00
31005;BME280;17676;52.254;4.490;2023-12-20T04:19:42;101469.09;;;9.00;100.00
31005;BME280;17676;52.254;4.490;2023-12-20T04:22:07;101460.19;;;8.99;100.00
31005;BME280;17676;52.254;4.490;2023-12-20T04:24:33;101445.28;;;8.89;100.00
31005;BME280;17676;52.254;4.490;2023-12-20T04:26:59;101478.31;;;8.91;100.00
31005;BME280;17676;52.254;4.490;2023-12-20T04:29:24;101463.81;;;8.92;100.00
31005;BME280;17676;52.254;4.490;2023-12-20T04:31:50;101459.53;;;9.12;100.00
31005;BME280;17676;52.254;4.490;2023-12-20T04:34:19;101435.72;;;9.01;100.00
31005;BME280;17676;52.254;4.490;2023-12-20T04:36:45;101451.34;;;9.05;100.00
31005;BME280;17676;52.254;4.490;2023-12-20T04:39:12;101460.31;;;9.20;100.00
31005;BME280;17676;52.254;4.490;2023-12-20T04:41:38;101450.78;;;9.10;100.00
31005;BME280;17676;52.254;4.490;2023-12-20T04:44:05;101446.72;;;9.14;100.00
31005;BME280;17676;52.254;4.490;2023-12-20T04:46:31;101460.50;;;9.19;100.00
31005;BME280;17676;52.254;4.490;2023-12-20T04:48:57;101469.78;;;9.02;100.00
31005;BME280;17676;52.254;4.490;2023-12-20T04:51:22;101479.81;;;9.08;100.00
31005;BME280;17676;52.254;4.490;2023-12-20T04:53:49;101469.09;;;9.00;100.00
31005;BME280;17676;52.254;4.490;2023-12-20T04:56:14;101462.22;;;8.97;100.00
31005;BME280;17676;52.254;4.490;2023-12-20T04:58:40;101464.44;;;8.94;100.00
31005;BME280;17676;52.254;4.490;2023-12-20T05:01:06;101491.91;;;8.97;100.00
31005;BME280;17676;52.254;4.490;2023-12-20T05:03:32;101493.03;;;9.03;100.00
31005;BME280;17676;52.254;4.490;2023-12-20T05:05:58;101479.91;;;9.00;100.00
31005;BME280;17676;52.254;4.490;2023-12-20T05:08:24;101495.03;;;9.09;100.00
31005;BME280;17676;52.254;4.490;2023-12-20T05:10:50;101498.28;;;9.19;100.00
31005;BME280;17676;52.254;4.490;2023-12-20T05:13:16;101517.69;;;9.22;100.00
31005;BME280;17676;52.254;4.490;2023-12-20T05:15:42;101505.84;;;9.23;100.00
31005;BME280;17676;52.254;4.490;2023-12-20T05:18:08;101520.00;;;9.25;100.00
31005;BME280;17676;52.254;4.490;2023-12-20T05:20:34;101513.41;;;9.28;100.00
31005;BME280;17676;52.254;4.490;2023-12-20T05:23:00;101505.22;;;9.36;100.00
31005;BME280;17676;52.254;4.490;2023-12-20T05:25:26;101504.84;;;9.39;100.00
31005;BME280;17676;52.254;4.490;2023-12-20T05:27:52;101497.03;;;9.44;100.00
31005;BME280;17676;52.254;4.490;2023-12-20T05:30:17;101467.69;;;9.26;100.00
31005;BME280;17676;52.254;4.490;2023-12-20T05:32:43;101480.53;;;9.39;100.00
31005;BME280;17676;52.254;4.490;2023-12-20T05:35:08;101481.38;;;9.39;100.00
31005;BME280;17676;52.254;4.490;2023-12-20T05:37:36;101482.88;;;9.42;100.00
31005;BME280;17676;52.254;4.490;2023-12-20T05:40:02;101455.78;;;9.35;100.00
31005;BME280;17676;52.254;4.490;2023-12-20T05:42:28;101451.09;;;9.29;100.00
31005;BME280;17676;52.254;4.490;2023-12-20T05:44:53;101457.34;;;9.30;100.00
31005;BME280;17676;52.254;4.490;2023-12-20T05:47:22;101465.34;;;9.38;100.00
31005;BME280;17676;52.254;4.490;2023-12-20T05:49:50;101495.72;;;9.40;100.00
31005;BME280;17676;52.254;4.490;2023-12-20T05:52:15;101475.41;;;9.29;100.00
31005;BME280;17676;52.254;4.490;2023-12-20T05:54:41;101484.28;;;9.38;100.00
31005;BME280;17676;52.254;4.490;2023-12-20T05:57:07;101466.94;;;9.47;100.00
31005;BME280;17676;52.254;4.490;2023-12-20T05:59:32;101442.16;;;9.43;100.00
31005;BME280;17676;52.254;4.490;2023-12-20T06:01:58;101442.81;;;9.31;100.00
31005;BME280;17676;52.254;4.490;2023-12-20T06:04:23;101451.19;;;9.36;100.00
31005;BME280;17676;52.254;4.490;2023-12-20T06:06:49;101414.66;;;9.40;100.00
31005;BME280;17676;52.254;4.490;2023-12-20T06:09:15;101366.34;;;9.30;100.00
31005;BME280;17676;52.254;4.490;2023-12-20T06:11:40;101362.25;;;9.34;100.00
31005;BME280;17676;52.254;4.490;2023-12-20T06:14:06;101354.03;;;9.28;100.00
31005;BME280;17676;52.254;4.490;2023-12-20T06:16:32;101340.16;;;9.31;100.00
31005;BME280;17676;52.254;4.490;2023-12-20T06:18:58;101343.13;;;9.36;100.00
31005;BME280;17676;52.254;4.490;2023-12-20T06:21:24;101325.47;;;9.19;100.00
31005;BME280;17676;52.254;4.490;2023-12-20T06:23:50;101351.06;;;9.23;100.00
31005;BME280;17676;52.254;4.490;2023-12-20T06:26:15;101331.53;;;9.06;100.00
31005;BME280;17676;52.254;4.490;2023-12-20T06:28:41;101325.28;;;9.06;100.00
31005;BME280;17676;52.254;4.490;2023-12-20T06:31:07;101300.72;;;9.01;100.00
31005;BME280;17676;52.254;4.490;2023-12-20T06:33:32;101287.41;;;8.99;100.00
31005;BME280;17676;52.254;4.490;2023-12-20T06:35:58;101242.22;;;9.08;100.00
31005;BME280;17676;52.254;4.490;2023-12-20T06:38:24;101209.56;;;9.03;100.00
31005;BME280;17676;52.254;4.490;2023-12-20T06:40:50;101239.25;;;9.03;100.00
31005;BME280;17676;52.254;4.490;2023-12-20T06:43:16;101234.25;;;9.14;100.00
31005;BME280;17676;52.254;4.490;2023-12-20T06:45:41;101217.63;;;9.17;100.00
31005;BME280;17676;52.254;4.490;2023-12-20T06:48:07;101190.00;;;9.15;100.00
31005;BME280;17676;52.254;4.490;2023-12-20T06:50:33;101167.56;;;9.15;100.00
31005;BME280;17676;52.254;4.490;2023-12-20T06:52:58;101147.25;;;9.19;100.00
31005;BME280;17676;52.254;4.490;2023-12-20T06:55:26;101116.50;;;9.20;100.00
31005;BME280;17676;52.254;4.490;2023-12-20T06:57:52;101141.09;;;9.25;100.00
31005;BME280;17676;52.254;4.490;2023-12-20T07:00:17;101117.91;;;9.16;100.00
31005;BME280;17676;52.254;4.490;2023-12-20T07:02:45;101129.38;;;9.18;100.00
31005;BME280;17676;52.254;4.490;2023-12-20T07:05:13;101146.50;;;9.25;100.00
31005;BME280;17676;52.254;4.490;2023-12-20T07:07:41;101158.94;;;9.26;100.00
31005;BME280;17676;52.254;4.490;2023-12-20T07:10:07;101199.84;;;9.23;100.00
31005;BME280;17676;52.254;4.490;2023-12-20T07:12:33;101237.09;;;9.27;100.00
31005;BME280;17676;52.254;4.490;2023-12-20T07:14:59;101246.41;;;9.25;100.00
31005;BME280;17676;52.254;4.490;2023-12-20T07:17:25;101246.97;;;9.20;100.00
31005;BME280;17676;52.254;4.490;2023-12-20T07:19:51;101237.00;;;9.21;100.00
31005;BME280;17676;52.254;4.490;2023-12-20T07:22:17;101254.69;;;9.23;100.00
31005;BME280;17676;52.254;4.490;2023-12-20T07:24:42;101256.56;;;9.23;100.00
31005;BME280;17676;52.254;4.490;2023-12-20T07:27:08;101273.69;;;9.30;100.00
31005;BME280;17676;52.254;4.490;2023-12-20T07:29:33;101242.00;;;9.24;100.00
31005;BME280;17676;52.254;4.490;2023-12-20T07:31:59;101242.00;;;9.24;100.00
31005;BME280;17676;52.254;4.490;2023-12-20T07:34:25;101251.16;;;9.23;100.00
31005;BME280;17676;52.254;4.490;2023-12-20T07:36:51;101237.91;;;9.28;100.00
31005;BME280;17676;52.254;4.490;2023-12-20T07:39:16;101242.56;;;9.34;100.00
31005;BME280;17676;52.254;4.490;2023-12-20T07:41:42;101214.88;;;9.32;100.00
31005;BME280;17676;52.254;4.490;2023-12-20T07:44:07;101194.00;;;9.40;100.00
31005;BME280;17676;52.254;4.490;2023-12-20T07:46:33;101213.16;;;9.45;100.00
31005;BME280;17676;52.254;4.490;2023-12-20T07:48:59;101201.13;;;9.48;100.00
31005;BME280;17676;52.254;4.490;2023-12-20T07:51:24;101196.66;;;9.55;100.00
31005;BME280;17676;52.254;4.490;2023-12-20T07:53:51;101155.50;;;9.53;100.00
31005;BME280;17676;52.254;4.490;2023-12-20T07:56:18;101194.97;;;9.54;100.00
31005;BME280;17676;52.254;4.490;2023-12-20T07:58:45;101207.47;;;9.55;100.00
31005;BME280;17676;52.254;4.490;2023-12-20T08:01:11;101207.00;;;9.51;100.00
31005;BME280;17676;52.254;4.490;2023-12-20T08:03:37;101202.97;;;9.62;100.00
31005;BME280;17676;52.254;4.490;2023-12-20T08:06:03;101208.81;;;9.65;100.00
31005;BME280;17676;52.254;4.490;2023-12-20T08:08:30;101210.16;;;9.76;100.00
31005;BME280;17676;52.254;4.490;2023-12-20T08:10:56;101197.19;;;9.65;100.00
31005;BME280;17676;52.254;4.490;2023-12-20T08:13:26;101201.78;;;9.71;100.00
31005;BME280;17676;52.254;4.490;2023-12-20T08:15:52;101176.84;;;9.69;100.00
31005;BME280;17676;52.254;4.490;2023-12-20T08:18:18;101188.03;;;9.66;100.00
31005;BME280;17676;52.254;4.490;2023-12-20T08:20:44;101187.91;;;9.74;100.00
31005;BME280;17676;52.254;4.490;2023-12-20T08:23:09;101191.63;;;9.73;100.00
31005;BME280;17676;52.254;4.490;2023-12-20T08:25:35;101219.69;;;9.72;100.00
31005;BME280;17676;52.254;4.490;2023-12-20T08:28:03;101253.03;;;9.79;100.00
31005;BME280;17676;52.254;4.490;2023-12-20T08:30:29;101261.56;;;9.82;100.00
31005;BME280;17676;52.254;4.490;2023-12-20T08:32:56;101279.66;;;9.82;100.00
31005;BME280;17676;52.254;4.490;2023-12-20T08:35:22;101301.78;;;9.92;100.00
31005;BME280;17676;52.254;4.490;2023-12-20T08:37:49;101339.78;;;9.84;100.00
31005;BME280;17676;52.254;4.490;2023-12-20T08:40:15;101348.06;;;9.97;100.00
31005;BME280;17676;52.254;4.490;2023-12-20T08:42:42;101371.09;;;9.93;100.00
31005;BME280;17676;52.254;4.490;2023-12-20T08:45:08;101382.97;;;9.98;100.00
31005;BME280;17676;52.254;4.490;2023-12-20T08:47:34;101424.56;;;9.97;100.00
31005;BME280;17676;52.254;4.490;2023-12-20T08:49:59;101417.06;;;9.93;100.00
31005;BME280;17676;52.254;4.490;2023-12-20T08:52:26;101444.97;;;10.00;100.00
31005;BME280;17676;52.254;4.490;2023-12-20T08:54:53;101435.56;;;9.96;100.00
31005;BME280;17676;52.254;4.490;2023-12-20T08:57:22;101435.47;;;10.04;100.00
31005;BME280;17676;52.254;4.490;2023-12-20T08:59:49;101410.97;;;10.05;100.00
31005;BME280;17676;52.254;4.490;2023-12-20T09:02:20;101404.75;;;10.05;100.00
31005;BME280;17676;52.254;4.490;2023-12-20T09:04:46;101378.03;;;10.02;100.00
31005;BME280;17676;52.254;4.490;2023-12-20T09:07:26;101366.75;;;10.13;100.00
31005;BME280;17676;52.254;4.490;2023-12-20T09:09:53;101385.69;;;10.13;100.00
31005;BME280;17676;52.254;4.490;2023-12-20T09:12:21;101375.69;;;10.13;100.00
31005;BME280;17676;52.254;4.490;2023-12-20T09:14:48;101384.78;;;10.06;100.00
31005;BME280;17676;52.254;4.490;2023-12-20T09:17:15;101365.72;;;10.14;100.00
31005;BME280;17676;52.254;4.490;2023-12-20T09:19:44;101341.94;;;10.09;100.00
31005;BME280;17676;52.254;4.490;2023-12-20T09:22:10;101340.22;;;10.23;100.00
31005;BME280;17676;52.254;4.490;2023-12-20T09:24:36;101341.63;;;10.19;100.00
31005;BME280;17676;52.254;4.490;2023-12-20T09:27:02;101323.50;;;10.13;100.00
31005;BME280;17676;52.254;4.490;2023-12-20T09:29:28;101355.22;;;10.26;100.00
31005;BME280;17676;52.254;4.490;2023-12-20T09:31:54;101341.50;;;10.27;100.00
31005;BME280;17676;52.254;4.490;2023-12-20T09:34:20;101343.72;;;10.17;100.00
31005;BME280;17676;52.254;4.490;2023-12-20T09:36:53;101361.84;;;10.23;100.00
31005;BME280;17676;52.254;4.490;2023-12-20T09:39:19;101355.41;;;10.24;100.00
31005;BME280;17676;52.254;4.490;2023-12-20T09:41:51;101378.22;;;10.15;100.00
31005;BME280;17676;52.254;4.490;2023-12-20T09:44:22;101351.41;;;10.20;100.00
31005;BME280;17676;52.254;4.490;2023-12-20T09:46:50;101372.16;;;10.34;100.00
31005;BME280;17676;52.254;4.490;2023-12-20T09:49:18;101390.25;;;10.34;100.00
31005;BME280;17676;52.254;4.490;2023-12-20T09:51:46;101401.00;;;10.48;100.00
31005;BME280;17676;52.254;4.490;2023-12-20T09:54:20;101422.16;;;10.38;100.00
31005;BME280;17676;52.254;4.490;2023-12-20T09:56:46;101435.50;;;10.40;100.00
31005;BME280;17676;52.254;4.490;2023-12-20T09:59:12;101453.53;;;10.33;100.00
31005;BME280;17676;52.254;4.490;2023-12-20T10:01:43;101453.03;;;10.44;100.00
31005;BME280;17676;52.254;4.490;2023-12-20T10:04:10;101463.06;;;10.50;100.00
31005;BME280;17676;52.254;4.490;2023-12-20T10:06:43;101455.00;;;10.35;100.00
31005;BME280;17676;52.254;4.490;2023-12-20T10:09:09;101465.69;;;10.22;100.00
31005;BME280;17676;52.254;4.490;2023-12-20T10:11:36;101471.47;;;10.19;100.00
31005;BME280;17676;52.254;4.490;2023-12-20T10:14:03;101487.56;;;10.06;100.00
31005;BME280;17676;52.254;4.490;2023-12-20T10:16:29;101484.84;;;10.06;100.00
31005;BME280;17676;52.254;4.490;2023-12-20T10:18:55;101452.28;;;10.14;100.00
31005;BME280;17676;52.254;4.490;2023-12-20T10:21:22;101399.84;;;10.15;100.00
31005;BME280;17676;52.254;4.490;2023-12-20T10:23:48;101365.06;;;10.33;100.00
31005;BME280;17676;52.254;4.490;2023-12-20T10:26:26;101378.47;;;10.41;100.00
31005;BME280;17676;52.254;4.490;2023-12-20T10:28:56;101359.75;;;10.40;100.00
31005;BME280;17676;52.254;4.490;2023-12-20T10:31:32;101336.31;;;10.53;100.00
31005;BME280;17676;52.254;4.490;2023-12-20T10:33:58;101352.41;;;10.61;100.00
31005;BME280;17676;52.254;4.490;2023-12-20T10:36:33;101369.00;;;10.52;100.00
31005;BME280;17676;52.254;4.490;2023-12-20T10:38:59;101371.63;;;10.66;100.00
31005;BME280;17676;52.254;4.490;2023-12-20T10:41:29;101361.47;;;10.75;100.00
31005;BME280;17676;52.254;4.490;2023-12-20T10:44:04;101371.44;;;10.95;100.00
31005;BME280;17676;52.254;4.490;2023-12-20T10:46:35;101400.56;;;10.93;100.00
31005;BME280;17676;52.254;4.490;2023-12-20T10:49:05;101460.03;;;10.80;100.00
31005;BME280;17676;52.254;4.490;2023-12-20T10:51:31;101486.72;;;10.83;100.00
31005;BME280;17676;52.254;4.490;2023-12-20T10:53:57;101483.25;;;10.68;100.00
31005;BME280;17676;52.254;4.490;2023-12-20T10:56:23;101476.03;;;10.75;100.00
31005;BME280;17676;52.254;4.490;2023-12-20T10:58:49;101482.47;;;10.74;100.00
31005;BME280;17676;52.254;4.490;2023-12-20T11:01:17;101508.78;;;10.80;100.00
31005;BME280;17676;52.254;4.490;2023-12-20T11:03:51;101494.72;;;10.70;100.00
31005;BME280;17676;52.254;4.490;2023-12-20T11:06:53;101498.53;;;10.76;100.00
31005;BME280;17676;52.254;4.490;2023-12-20T11:09:22;101500.72;;;10.66;100.00
31005;BME280;17676;52.254;4.490;2023-12-20T11:14:45;101481.94;;;10.64;100.00
31005;BME280;17676;52.254;4.490;2023-12-20T11:17:12;101495.38;;;10.72;100.00
31005;BME280;17676;52.254;4.490;2023-12-20T11:22:20;101461.44;;;10.76;100.00
31005;BME280;17676;52.254;4.490;2023-12-20T11:24:47;101443.84;;;10.87;100.00
31005;BME280;17676;52.254;4.490;2023-12-20T11:27:13;101413.47;;;10.91;100.00
31005;BME280;17676;52.254;4.490;2023-12-20T11:29:41;101401.75;;;10.84;100.00
31005;BME280;17676;52.254;4.490;2023-12-20T11:34:58;101397.50;;;10.75;100.00
31005;BME280;17676;52.254;4.490;2023-12-20T11:37:35;101387.06;;;10.72;100.00
31005;BME280;17676;52.254;4.490;2023-12-20T11:40:05;101371.22;;;10.69;100.00
31005;BME280;17676;52.254;4.490;2023-12-20T11:42:38;101380.13;;;10.91;100.00
31005;BME280;17676;52.254;4.490;2023-12-20T11:45:04;101362.03;;;10.91;100.00
31005;BME280;17676;52.254;4.490;2023-12-20T11:47:31;101376.59;;;10.90;100.00
31005;BME280;17676;52.254;4.490;2023-12-20T11:49:57;101400.06;;;10.83;100.00
31005;BME280;17676;52.254;4.490;2023-12-20T11:52:22;101401.50;;;10.79;100.00
31005;BME280;17676;52.254;4.490;2023-12-20T11:54:48;101404.16;;;10.73;100.00
31005;BME280;17676;52.254;4.490;2023-12-20T11:57:14;101377.53;;;10.76;100.00
31005;BME280;17676;52.254;4.490;2023-12-20T11:59:39;101387.06;;;10.72;100.00
31005;BME280;17676;52.254;4.490;2023-12-20T12:02:05;101405.41;;;10.70;100.00
31005;BME280;17676;52.254;4.490;2023-12-20T12:04:31;101359.63;;;10.75;100.00
31005;BME280;17676;52.254;4.490;2023-12-20T12:06:57;101371.88;;;10.71;100.00
31005;BME280;17676;52.254;4.490;2023-12-20T12:09:22;101371.22;;;10.69;100.00
31005;BME280;17676;52.254;4.490;2023-12-20T12:11:48;101340.81;;;10.67;100.00
31005;BME280;17676;52.254;4.490;2023-12-20T12:14:13;101345.84;;;10.70;100.00
31005;BME280;17676;52.254;4.490;2023-12-20T12:16:41;101328.97;;;10.75;100.00
31005;BME280;17676;52.254;4.490;2023-12-20T12:19:07;101323.38;;;10.76;100.00
31005;BME280;17676;52.254;4.490;2023-12-20T12:21:33;101295.56;;;10.89;100.00
31005;BME280;17676;52.254;4.490;2023-12-20T12:24:08;101298.44;;;10.81;100.00
31005;BME280;17676;52.254;4.490;2023-12-20T12:26:35;101303.38;;;10.77;100.00
31005;BME280;17676;52.254;4.490;2023-12-20T12:29:00;101310.06;;;10.81;100.00
31005;BME280;17676;52.254;4.490;2023-12-20T12:31:26;101305.13;;;10.85;100.00
31005;BME280;17676;52.254;4.490;2023-12-20T12:33:54;101303.19;;;10.79;100.00
31005;BME280;17676;52.254;4.490;2023-12-20T12:36:20;101297.09;;;10.70;100.00
31005;BME280;17676;52.254;4.490;2023-12-20T12:38:46;101281.50;;;10.72;100.00
31005;BME280;17676;52.254;4.490;2023-12-20T12:41:13;101272.13;;;10.75;100.00
31005;BME280;17676;52.254;4.490;2023-12-20T12:43:39;101277.59;;;10.81;100.00
31005;BME280;17676;52.254;4.490;2023-12-20T12:46:04;101265.22;;;10.66;100.00
31005;BME280;17676;52.254;4.490;2023-12-20T12:48:30;101205.44;;;10.61;100.00
31005;BME280;17676;52.254;4.490;2023-12-20T12:50:59;101235.47;;;10.72;100.00
31005;BME280;17676;52.254;4.490;2023-12-20T12:53:27;101217.78;;;10.76;100.00